This is the latest recevied weather packets stored in our database for station/object KB2M. If no packets are shown the sender has not sent any weather packets the latest 10 day(s).
| Time | Temp. | Humidity | Pressure | Rain* | Wind** | Luminosity | Snow |
|---|---|---|---|---|---|---|---|
| 1787872147 | 25.56° C | 85% | 1017.6 hPa | 0 mm | - | - | - |
| 1787871548 | 25.56° C | 86% | 1017.6 hPa | 0 mm | - | - | - |
| 1787870948 | 26.11° C | 86% | 1017.6 hPa | 0 mm | - | - | - |
| 1787870348 | 26.67° C | 83% | 1017.2 hPa | 0 mm | - | - | - |
| 1787869718 | 26.67° C | 82% | 1017.2 hPa | 0 mm | - | - | - |
| 1787869118 | 26.67° C | 81% | 1016.9 hPa | 0 mm | - | - | - |
| 1787868488 | 26.67° C | 80% | 1017.2 hPa | 0 mm | - | - | - |
| 1787867858 | 26.67° C | 80% | 1017.2 hPa | 0 mm | - | - | - |
| 1787867258 | 26.67° C | 80% | 1017.6 hPa | 0 mm | - | - | - |
| 1787866658 | 26.67° C | 81% | 1017.6 hPa | 0 mm | - | - | - |
| 1787866058 | 26.67° C | 81% | 1017.2 hPa | 0 mm | - | - | - |
| 1787865428 | 26.67° C | 80% | 1017.2 hPa | 0 mm | - | - | - |
| 1787864798 | 26.67° C | 80% | 1016.9 hPa | 0 mm | - | - | - |
| 1787864168 | 26.67° C | 80% | 1017.2 hPa | 0 mm | - | - | - |
| 1787863568 | 26.67° C | 79% | 1016.5 hPa | 0 mm | - | - | - |
| 1787862938 | 26.67° C | 78% | 1016.9 hPa | 0 mm | - | - | - |
| 1787862338 | 26.67° C | 81% | 1016.9 hPa | 1.02 mm | - | - | - |
| 1787861708 | 26.67° C | 83% | 1017.2 hPa | 2.03 mm | - | - | - |
| 1787861078 | 26.67° C | 85% | 1017.6 hPa | 2.03 mm | - | - | - |
| 1787860478 | 26.11° C | 85% | 1016.9 hPa | 2.03 mm | - | - | - |
| 1787859848 | 25.56° C | 88% | 1017.6 hPa | 2.03 mm | - | - | - |
| 1787859218 | 26.11° C | 86% | 1017.9 hPa | 2.03 mm | - | - | - |
| 1787858588 | 28.33° C | 79% | 1017.2 hPa | 0.25 mm | - | - | - |
| 1787857988 | 29.44° C | 79% | 1016.5 hPa | 0 mm | - | - | - |
| 1787857388 | 30.56° C | 71% | 1016.9 hPa | 0 mm | - | - | - |
* Rain latest hour (hover to see other rain measurements)
** Current wind speed in m/s (hover to see current wind gust speed)